sensor_id;sensor_type;location;lat;lon;timestamp;P1;durP1;ratioP1;P2;durP2;ratioP2
45618;SDS011;31343;47.520;19.144;2022-12-15T00:01:23;31.63;;;14.87;;
45618;SDS011;31343;47.520;19.144;2022-12-15T00:04:07;28.88;;;14.70;;
45618;SDS011;31343;47.520;19.144;2022-12-15T00:06:51;31.42;;;14.30;;
45618;SDS011;31343;47.520;19.144;2022-12-15T00:09:35;25.95;;;14.35;;
45618;SDS011;31343;47.520;19.144;2022-12-15T00:12:19;27.48;;;14.05;;
45618;SDS011;31343;47.520;19.144;2022-12-15T00:15:04;29.70;;;13.35;;
45618;SDS011;31343;47.520;19.144;2022-12-15T00:17:48;24.85;;;14.38;;
45618;SDS011;31343;47.520;19.144;2022-12-15T00:20:33;30.03;;;15.17;;
45618;SDS011;31343;47.520;19.144;2022-12-15T00:23:17;27.98;;;13.93;;
45618;SDS011;31343;47.520;19.144;2022-12-15T00:26:01;25.60;;;13.32;;
45618;SDS011;31343;47.520;19.144;2022-12-15T00:28:46;30.90;;;15.35;;
45618;SDS011;31343;47.520;19.144;2022-12-15T00:31:30;26.55;;;15.80;;
45618;SDS011;31343;47.520;19.144;2022-12-15T00:34:14;26.52;;;16.30;;
45618;SDS011;31343;47.520;19.144;2022-12-15T00:36:58;23.80;;;13.85;;
45618;SDS011;31343;47.520;19.144;2022-12-15T00:39:42;27.98;;;14.52;;
45618;SDS011;31343;47.520;19.144;2022-12-15T00:42:08;24.92;;;13.25;;
45618;SDS011;31343;47.520;19.144;2022-12-15T00:44:34;26.52;;;14.15;;
45618;SDS011;31343;47.520;19.144;2022-12-15T00:47:01;28.27;;;15.88;;
45618;SDS011;31343;47.520;19.144;2022-12-15T00:49:28;24.10;;;13.27;;
45618;SDS011;31343;47.520;19.144;2022-12-15T00:52:14;32.75;;;15.60;;
45618;SDS011;31343;47.520;19.144;2022-12-15T00:55:00;24.88;;;13.80;;
45618;SDS011;31343;47.520;19.144;2022-12-15T00:57:44;27.55;;;14.35;;
45618;SDS011;31343;47.520;19.144;2022-12-15T01:00:29;26.63;;;13.67;;
45618;SDS011;31343;47.520;19.144;2022-12-15T01:03:14;27.10;;;15.50;;
45618;SDS011;31343;47.520;19.144;2022-12-15T01:06:03;26.73;;;14.73;;
45618;SDS011;31343;47.520;19.144;2022-12-15T01:08:49;23.83;;;14.68;;
45618;SDS011;31343;47.520;19.144;2022-12-15T01:11:33;26.53;;;14.43;;
45618;SDS011;31343;47.520;19.144;2022-12-15T01:14:17;29.90;;;15.43;;
45618;SDS011;31343;47.520;19.144;2022-12-15T01:17:01;30.42;;;15.50;;
45618;SDS011;31343;47.520;19.144;2022-12-15T01:19:45;27.77;;;14.80;;
45618;SDS011;31343;47.520;19.144;2022-12-15T01:22:29;27.77;;;13.30;;
45618;SDS011;31343;47.520;19.144;2022-12-15T01:24:55;29.85;;;16.15;;
45618;SDS011;31343;47.520;19.144;2022-12-15T01:27:20;28.40;;;15.32;;
45618;SDS011;31343;47.520;19.144;2022-12-15T01:29:46;32.38;;;18.13;;
45618;SDS011;31343;47.520;19.144;2022-12-15T01:32:12;25.92;;;13.93;;
45618;SDS011;31343;47.520;19.144;2022-12-15T01:34:38;32.03;;;16.60;;
45618;SDS011;31343;47.520;19.144;2022-12-15T01:37:03;27.27;;;14.52;;
45618;SDS011;31343;47.520;19.144;2022-12-15T01:39:29;27.90;;;15.85;;
45618;SDS011;31343;47.520;19.144;2022-12-15T01:42:15;32.63;;;17.48;;
45618;SDS011;31343;47.520;19.144;2022-12-15T01:44:40;27.92;;;15.18;;
45618;SDS011;31343;47.520;19.144;2022-12-15T01:47:08;28.25;;;16.15;;
45618;SDS011;31343;47.520;19.144;2022-12-15T01:49:37;26.80;;;15.05;;
45618;SDS011;31343;47.520;19.144;2022-12-15T01:52:04;27.13;;;14.23;;
45618;SDS011;31343;47.520;19.144;2022-12-15T01:54:34;28.23;;;15.20;;
45618;SDS011;31343;47.520;19.144;2022-12-15T01:57:08;30.63;;;16.90;;
45618;SDS011;31343;47.520;19.144;2022-12-15T01:59:39;27.55;;;14.35;;
45618;SDS011;31343;47.520;19.144;2022-12-15T02:02:13;28.88;;;15.80;;
45618;SDS011;31343;47.520;19.144;2022-12-15T02:04:39;29.70;;;14.52;;
45618;SDS011;31343;47.520;19.144;2022-12-15T02:07:08;28.23;;;16.52;;
45618;SDS011;31343;47.520;19.144;2022-12-15T02:09:38;31.45;;;16.08;;
45618;SDS011;31343;47.520;19.144;2022-12-15T02:12:10;29.33;;;15.40;;
45618;SDS011;31343;47.520;19.144;2022-12-15T02:31:26;32.42;;;15.93;;
45618;SDS011;31343;47.520;19.144;2022-12-15T02:37:06;27.95;;;15.25;;
45618;SDS011;31343;47.520;19.144;2022-12-15T02:39:39;30.58;;;16.98;;
45618;SDS011;31343;47.520;19.144;2022-12-15T02:42:05;27.85;;;15.85;;
45618;SDS011;31343;47.520;19.144;2022-12-15T02:57:52;29.98;;;16.20;;
45618;SDS011;31343;47.520;19.144;2022-12-15T03:00:32;27.45;;;15.68;;
45618;SDS011;31343;47.520;19.144;2022-12-15T03:03:02;34.67;;;16.95;;
45618;SDS011;31343;47.520;19.144;2022-12-15T03:05:29;34.13;;;17.85;;
45618;SDS011;31343;47.520;19.144;2022-12-15T03:07:56;31.65;;;17.02;;
45618;SDS011;31343;47.520;19.144;2022-12-15T03:10:22;29.02;;;16.10;;
45618;SDS011;31343;47.520;19.144;2022-12-15T03:12:49;27.35;;;15.02;;
45618;SDS011;31343;47.520;19.144;2022-12-15T03:15:16;28.30;;;16.15;;
45618;SDS011;31343;47.520;19.144;2022-12-15T03:17:42;36.20;;;16.40;;
45618;SDS011;31343;47.520;19.144;2022-12-15T03:20:08;34.38;;;18.63;;
45618;SDS011;31343;47.520;19.144;2022-12-15T03:22:35;35.85;;;17.85;;
45618;SDS011;31343;47.520;19.144;2022-12-15T03:25:01;39.28;;;19.08;;
45618;SDS011;31343;47.520;19.144;2022-12-15T03:27:27;39.33;;;18.98;;
45618;SDS011;31343;47.520;19.144;2022-12-15T03:29:53;34.60;;;19.13;;
45618;SDS011;31343;47.520;19.144;2022-12-15T03:32:19;38.70;;;20.17;;
45618;SDS011;31343;47.520;19.144;2022-12-15T03:34:45;38.70;;;19.50;;
45618;SDS011;31343;47.520;19.144;2022-12-15T03:37:10;36.50;;;20.60;;
45618;SDS011;31343;47.520;19.144;2022-12-15T03:39:36;43.97;;;21.38;;
45618;SDS011;31343;47.520;19.144;2022-12-15T03:42:03;42.97;;;20.38;;
45618;SDS011;31343;47.520;19.144;2022-12-15T03:44:28;39.95;;;21.83;;
45618;SDS011;31343;47.520;19.144;2022-12-15T03:46:54;40.58;;;21.10;;
45618;SDS011;31343;47.520;19.144;2022-12-15T03:49:20;41.70;;;23.55;;
45618;SDS011;31343;47.520;19.144;2022-12-15T03:51:45;38.83;;;21.00;;
45618;SDS011;31343;47.520;19.144;2022-12-15T03:54:12;48.50;;;23.40;;
45618;SDS011;31343;47.520;19.144;2022-12-15T03:56:38;38.88;;;22.00;;
45618;SDS011;31343;47.520;19.144;2022-12-15T03:59:04;40.63;;;20.80;;
45618;SDS011;31343;47.520;19.144;2022-12-15T04:01:31;43.33;;;21.25;;
45618;SDS011;31343;47.520;19.144;2022-12-15T04:03:58;46.90;;;22.70;;
45618;SDS011;31343;47.520;19.144;2022-12-15T04:06:25;38.60;;;20.98;;
45618;SDS011;31343;47.520;19.144;2022-12-15T04:08:51;43.42;;;22.30;;
45618;SDS011;31343;47.520;19.144;2022-12-15T04:11:17;43.55;;;23.80;;
45618;SDS011;31343;47.520;19.144;2022-12-15T04:13:43;47.50;;;22.75;;
45618;SDS011;31343;47.520;19.144;2022-12-15T04:16:09;45.95;;;22.40;;
45618;SDS011;31343;47.520;19.144;2022-12-15T04:18:34;45.10;;;23.17;;
45618;SDS011;31343;47.520;19.144;2022-12-15T04:21:00;40.30;;;22.35;;
45618;SDS011;31343;47.520;19.144;2022-12-15T04:23:26;45.03;;;23.25;;
45618;SDS011;31343;47.520;19.144;2022-12-15T04:25:51;48.40;;;23.70;;
45618;SDS011;31343;47.520;19.144;2022-12-15T04:28:36;44.05;;;23.48;;
45618;SDS011;31343;47.520;19.144;2022-12-15T04:31:27;47.23;;;22.77;;
45618;SDS011;31343;47.520;19.144;2022-12-15T04:34:15;46.35;;;24.90;;
45618;SDS011;31343;47.520;19.144;2022-12-15T04:37:08;49.75;;;23.35;;
45618;SDS011;31343;47.520;19.144;2022-12-15T04:39:54;44.60;;;22.73;;
45618;SDS011;31343;47.520;19.144;2022-12-15T04:45:25;41.70;;;20.88;;
45618;SDS011;31343;47.520;19.144;2022-12-15T04:48:10;51.63;;;22.85;;
45618;SDS011;31343;47.520;19.144;2022-12-15T04:50:55;43.20;;;22.83;;
45618;SDS011;31343;47.520;19.144;2022-12-15T04:53:39;46.42;;;23.08;;
45618;SDS011;31343;47.520;19.144;2022-12-15T04:56:24;42.20;;;22.70;;
45618;SDS011;31343;47.520;19.144;2022-12-15T04:59:08;45.53;;;22.48;;
45618;SDS011;31343;47.520;19.144;2022-12-15T05:01:52;43.13;;;21.85;;
45618;SDS011;31343;47.520;19.144;2022-12-15T05:04:37;45.33;;;22.67;;
45618;SDS011;31343;47.520;19.144;2022-12-15T05:07:21;42.53;;;20.83;;
45618;SDS011;31343;47.520;19.144;2022-12-15T05:10:07;40.80;;;23.10;;
45618;SDS011;31343;47.520;19.144;2022-12-15T05:12:52;42.85;;;22.35;;
45618;SDS011;31343;47.520;19.144;2022-12-15T05:15:37;40.80;;;22.38;;
45618;SDS011;31343;47.520;19.144;2022-12-15T05:18:21;44.25;;;23.63;;
45618;SDS011;31343;47.520;19.144;2022-12-15T05:21:05;36.97;;;19.48;;
45618;SDS011;31343;47.520;19.144;2022-12-15T05:23:50;43.75;;;21.60;;
45618;SDS011;31343;47.520;19.144;2022-12-15T05:26:34;39.50;;;21.25;;
45618;SDS011;31343;47.520;19.144;2022-12-15T05:29:19;40.05;;;22.55;;
45618;SDS011;31343;47.520;19.144;2022-12-15T05:32:04;41.88;;;21.58;;
45618;SDS011;31343;47.520;19.144;2022-12-15T05:34:30;38.05;;;22.05;;
45618;SDS011;31343;47.520;19.144;2022-12-15T05:36:57;35.95;;;20.40;;
45618;SDS011;31343;47.520;19.144;2022-12-15T05:39:25;45.17;;;20.48;;
45618;SDS011;31343;47.520;19.144;2022-12-15T05:41:51;45.10;;;22.98;;
45618;SDS011;31343;47.520;19.144;2022-12-15T05:44:18;41.83;;;21.10;;
45618;SDS011;31343;47.520;19.144;2022-12-15T05:46:44;38.45;;;22.00;;
45618;SDS011;31343;47.520;19.144;2022-12-15T05:49:11;48.22;;;22.25;;
45618;SDS011;31343;47.520;19.144;2022-12-15T05:51:42;40.60;;;20.05;;
45618;SDS011;31343;47.520;19.144;2022-12-15T05:54:09;40.97;;;21.00;;
45618;SDS011;31343;47.520;19.144;2022-12-15T05:56:36;35.30;;;20.85;;
45618;SDS011;31343;47.520;19.144;2022-12-15T05:59:02;44.33;;;22.52;;
45618;SDS011;31343;47.520;19.144;2022-12-15T06:01:28;44.45;;;21.95;;
45618;SDS011;31343;47.520;19.144;2022-12-15T06:03:57;39.40;;;21.63;;
45618;SDS011;31343;47.520;19.144;2022-12-15T06:06:23;44.63;;;21.08;;
45618;SDS011;31343;47.520;19.144;2022-12-15T06:08:49;43.05;;;22.55;;
45618;SDS011;31343;47.520;19.144;2022-12-15T06:11:15;47.08;;;23.35;;
45618;SDS011;31343;47.520;19.144;2022-12-15T06:13:42;44.35;;;24.70;;
45618;SDS011;31343;47.520;19.144;2022-12-15T06:16:10;42.15;;;22.13;;
45618;SDS011;31343;47.520;19.144;2022-12-15T06:18:47;48.78;;;24.50;;
45618;SDS011;31343;47.520;19.144;2022-12-15T06:21:17;46.83;;;23.45;;
45618;SDS011;31343;47.520;19.144;2022-12-15T06:23:44;52.22;;;24.67;;
45618;SDS011;31343;47.520;19.144;2022-12-15T06:28:36;45.15;;;25.17;;
45618;SDS011;31343;47.520;19.144;2022-12-15T06:31:03;49.00;;;25.27;;
45618;SDS011;31343;47.520;19.144;2022-12-15T06:33:32;50.25;;;24.60;;
45618;SDS011;31343;47.520;19.144;2022-12-15T06:36:02;47.60;;;25.30;;
45618;SDS011;31343;47.520;19.144;2022-12-15T06:38:30;51.05;;;25.10;;
45618;SDS011;31343;47.520;19.144;2022-12-15T06:40:58;50.80;;;25.05;;
45618;SDS011;31343;47.520;19.144;2022-12-15T06:43:26;49.17;;;25.02;;
45618;SDS011;31343;47.520;19.144;2022-12-15T06:45:52;46.95;;;25.15;;
45618;SDS011;31343;47.520;19.144;2022-12-15T06:48:18;51.50;;;25.80;;
45618;SDS011;31343;47.520;19.144;2022-12-15T06:50:45;50.60;;;26.42;;
45618;SDS011;31343;47.520;19.144;2022-12-15T06:53:14;47.28;;;26.95;;
45618;SDS011;31343;47.520;19.144;2022-12-15T06:55:41;53.55;;;26.33;;
45618;SDS011;31343;47.520;19.144;2022-12-15T06:58:08;46.22;;;23.77;;
45618;SDS011;31343;47.520;19.144;2022-12-15T07:00:36;44.40;;;24.25;;
45618;SDS011;31343;47.520;19.144;2022-12-15T07:03:03;47.47;;;25.25;;
45618;SDS011;31343;47.520;19.144;2022-12-15T07:05:31;53.25;;;26.83;;
45618;SDS011;31343;47.520;19.144;2022-12-15T07:07:57;53.05;;;26.25;;
45618;SDS011;31343;47.520;19.144;2022-12-15T07:10:22;51.22;;;25.35;;
45618;SDS011;31343;47.520;19.144;2022-12-15T07:12:48;53.63;;;26.02;;
45618;SDS011;31343;47.520;19.144;2022-12-15T07:15:13;54.33;;;27.70;;
45618;SDS011;31343;47.520;19.144;2022-12-15T07:17:39;48.55;;;27.60;;
45618;SDS011;31343;47.520;19.144;2022-12-15T07:20:05;55.60;;;26.10;;
45618;SDS011;31343;47.520;19.144;2022-12-15T07:22:32;54.30;;;29.00;;
45618;SDS011;31343;47.520;19.144;2022-12-15T07:24:57;57.05;;;28.50;;
45618;SDS011;31343;47.520;19.144;2022-12-15T07:27:23;61.28;;;28.45;;
45618;SDS011;31343;47.520;19.144;2022-12-15T07:29:49;55.35;;;28.10;;
45618;SDS011;31343;47.520;19.144;2022-12-15T07:32:15;63.45;;;30.63;;
45618;SDS011;31343;47.520;19.144;2022-12-15T07:34:41;57.67;;;28.77;;
45618;SDS011;31343;47.520;19.144;2022-12-15T07:37:07;53.28;;;25.83;;
45618;SDS011;31343;47.520;19.144;2022-12-15T07:39:33;64.50;;;30.35;;
45618;SDS011;31343;47.520;19.144;2022-12-15T07:41:58;52.78;;;29.00;;
45618;SDS011;31343;47.520;19.144;2022-12-15T07:44:24;53.03;;;27.10;;
45618;SDS011;31343;47.520;19.144;2022-12-15T07:46:50;50.78;;;27.70;;
45618;SDS011;31343;47.520;19.144;2022-12-15T07:49:16;55.70;;;27.83;;
45618;SDS011;31343;47.520;19.144;2022-12-15T07:51:43;51.13;;;25.95;;
45618;SDS011;31343;47.520;19.144;2022-12-15T07:54:09;54.22;;;27.58;;
45618;SDS011;31343;47.520;19.144;2022-12-15T07:56:36;57.00;;;26.85;;
45618;SDS011;31343;47.520;19.144;2022-12-15T07:59:02;57.70;;;25.52;;
45618;SDS011;31343;47.520;19.144;2022-12-15T08:01:29;52.88;;;25.83;;
45618;SDS011;31343;47.520;19.144;2022-12-15T08:03:55;46.97;;;22.73;;
45618;SDS011;31343;47.520;19.144;2022-12-15T08:06:21;44.55;;;23.63;;
45618;SDS011;31343;47.520;19.144;2022-12-15T08:08:47;41.75;;;22.75;;
45618;SDS011;31343;47.520;19.144;2022-12-15T08:11:13;51.70;;;25.23;;
45618;SDS011;31343;47.520;19.144;2022-12-15T08:13:40;46.97;;;24.77;;
45618;SDS011;31343;47.520;19.144;2022-12-15T08:16:08;42.50;;;22.92;;
45618;SDS011;31343;47.520;19.144;2022-12-15T08:18:34;54.30;;;24.40;;
45618;SDS011;31343;47.520;19.144;2022-12-15T08:21:04;45.95;;;23.98;;
45618;SDS011;31343;47.520;19.144;2022-12-15T08:23:32;41.88;;;22.38;;
45618;SDS011;31343;47.520;19.144;2022-12-15T08:26:04;46.92;;;22.83;;
45618;SDS011;31343;47.520;19.144;2022-12-15T08:28:32;46.97;;;24.07;;
45618;SDS011;31343;47.520;19.144;2022-12-15T08:31:13;45.15;;;23.02;;
45618;SDS011;31343;47.520;19.144;2022-12-15T08:33:41;40.90;;;21.98;;
45618;SDS011;31343;47.520;19.144;2022-12-15T08:36:09;44.55;;;22.70;;
45618;SDS011;31343;47.520;19.144;2022-12-15T08:38:37;44.30;;;24.02;;
45618;SDS011;31343;47.520;19.144;2022-12-15T08:43:37;41.67;;;22.88;;
45618;SDS011;31343;47.520;19.144;2022-12-15T08:46:03;41.63;;;21.20;;
45618;SDS011;31343;47.520;19.144;2022-12-15T08:48:30;44.70;;;23.65;;
45618;SDS011;31343;47.520;19.144;2022-12-15T08:50:56;40.50;;;22.25;;
45618;SDS011;31343;47.520;19.144;2022-12-15T08:53:22;46.20;;;22.48;;
45618;SDS011;31343;47.520;19.144;2022-12-15T08:55:48;42.72;;;24.88;;
45618;SDS011;31343;47.520;19.144;2022-12-15T08:58:14;54.15;;;23.83;;
45618;SDS011;31343;47.520;19.144;2022-12-15T09:00:40;46.67;;;23.13;;
45618;SDS011;31343;47.520;19.144;2022-12-15T09:03:05;48.25;;;24.75;;
45618;SDS011;31343;47.520;19.144;2022-12-15T09:05:33;46.53;;;23.63;;
45618;SDS011;31343;47.520;19.144;2022-12-15T09:08:00;49.45;;;23.58;;
45618;SDS011;31343;47.520;19.144;2022-12-15T09:10:25;49.20;;;24.17;;
45618;SDS011;31343;47.520;19.144;2022-12-15T09:12:51;51.83;;;24.15;;
45618;SDS011;31343;47.520;19.144;2022-12-15T09:15:17;51.08;;;22.42;;
45618;SDS011;31343;47.520;19.144;2022-12-15T09:17:43;51.78;;;23.00;;
45618;SDS011;31343;47.520;19.144;2022-12-15T09:20:09;48.08;;;24.70;;
45618;SDS011;31343;47.520;19.144;2022-12-15T09:22:35;51.00;;;25.67;;
45618;SDS011;31343;47.520;19.144;2022-12-15T09:25:02;57.15;;;23.42;;
45618;SDS011;31343;47.520;19.144;2022-12-15T09:27:28;49.28;;;23.42;;
45618;SDS011;31343;47.520;19.144;2022-12-15T09:29:56;54.25;;;25.10;;
45618;SDS011;31343;47.520;19.144;2022-12-15T09:32:22;50.47;;;24.17;;
45618;SDS011;31343;47.520;19.144;2022-12-15T09:34:51;55.25;;;26.27;;
45618;SDS011;31343;47.520;19.144;2022-12-15T09:37:18;51.80;;;23.23;;
45618;SDS011;31343;47.520;19.144;2022-12-15T09:39:44;55.30;;;24.60;;
45618;SDS011;31343;47.520;19.144;2022-12-15T09:42:43;45.47;;;22.23;;
45618;SDS011;31343;47.520;19.144;2022-12-15T09:45:37;54.88;;;23.17;;
45618;SDS011;31343;47.520;19.144;2022-12-15T09:48:16;53.33;;;25.23;;
45618;SDS011;31343;47.520;19.144;2022-12-15T09:50:49;46.65;;;24.20;;
45618;SDS011;31343;47.520;19.144;2022-12-15T09:53:18;49.05;;;23.25;;
45618;SDS011;31343;47.520;19.144;2022-12-15T09:55:47;46.35;;;24.20;;
45618;SDS011;31343;47.520;19.144;2022-12-15T09:58:32;44.15;;;21.98;;
45618;SDS011;31343;47.520;19.144;2022-12-15T10:06:50;46.50;;;23.25;;
45618;SDS011;31343;47.520;19.144;2022-12-15T10:09:36;46.20;;;23.50;;
45618;SDS011;31343;47.520;19.144;2022-12-15T10:12:09;48.95;;;22.52;;
45618;SDS011;31343;47.520;19.144;2022-12-15T10:14:41;48.88;;;23.35;;
45618;SDS011;31343;47.520;19.144;2022-12-15T10:17:18;54.30;;;24.70;;
45618;SDS011;31343;47.520;19.144;2022-12-15T10:22:26;53.75;;;22.75;;
45618;SDS011;31343;47.520;19.144;2022-12-15T10:24:56;52.53;;;24.58;;
45618;SDS011;31343;47.520;19.144;2022-12-15T10:32:32;45.13;;;21.90;;
45618;SDS011;31343;47.520;19.144;2022-12-15T10:35:18;44.45;;;22.40;;
45618;SDS011;31343;47.520;19.144;2022-12-15T10:37:46;45.60;;;21.95;;
45618;SDS011;31343;47.520;19.144;2022-12-15T10:40:19;47.20;;;22.08;;
45618;SDS011;31343;47.520;19.144;2022-12-15T10:43:10;50.17;;;21.65;;
45618;SDS011;31343;47.520;19.144;2022-12-15T10:45:38;50.22;;;22.38;;
45618;SDS011;31343;47.520;19.144;2022-12-15T10:48:04;46.22;;;24.20;;
45618;SDS011;31343;47.520;19.144;2022-12-15T10:50:31;56.97;;;25.42;;
45618;SDS011;31343;47.520;19.144;2022-12-15T10:52:59;57.08;;;24.98;;
45618;SDS011;31343;47.520;19.144;2022-12-15T10:58:18;53.15;;;24.20;;
45618;SDS011;31343;47.520;19.144;2022-12-15T11:00:47;51.55;;;24.20;;
45618;SDS011;31343;47.520;19.144;2022-12-15T11:03:28;58.10;;;25.42;;
45618;SDS011;31343;47.520;19.144;2022-12-15T11:06:00;53.33;;;24.08;;
45618;SDS011;31343;47.520;19.144;2022-12-15T11:08:26;58.05;;;24.95;;
45618;SDS011;31343;47.520;19.144;2022-12-15T11:10:57;51.25;;;24.80;;
45618;SDS011;31343;47.520;19.144;2022-12-15T11:13:43;57.78;;;23.98;;
45618;SDS011;31343;47.520;19.144;2022-12-15T11:16:35;60.92;;;27.60;;
45618;SDS011;31343;47.520;19.144;2022-12-15T11:19:13;61.22;;;25.15;;
45618;SDS011;31343;47.520;19.144;2022-12-15T11:21:50;56.80;;;24.80;;
45618;SDS011;31343;47.520;19.144;2022-12-15T11:24:21;57.70;;;24.42;;
45618;SDS011;31343;47.520;19.144;2022-12-15T11:32:14;56.55;;;27.83;;
45618;SDS011;31343;47.520;19.144;2022-12-15T11:34:46;61.83;;;24.90;;
45618;SDS011;31343;47.520;19.144;2022-12-15T11:51:28;49.85;;;21.58;;
45618;SDS011;31343;47.520;19.144;2022-12-15T11:54:06;51.20;;;24.80;;
45618;SDS011;31343;47.520;19.144;2022-12-15T12:19:15;58.60;;;24.83;;
45618;SDS011;31343;47.520;19.144;2022-12-15T12:21:46;60.97;;;24.83;;
45618;SDS011;31343;47.520;19.144;2022-12-15T12:24:24;58.88;;;24.67;;
45618;SDS011;31343;47.520;19.144;2022-12-15T12:32:50;64.20;;;27.10;;
45618;SDS011;31343;47.520;19.144;2022-12-15T12:38:02;60.33;;;25.30;;
45618;SDS011;31343;47.520;19.144;2022-12-15T12:43:21;66.43;;;26.88;;
45618;SDS011;31343;47.520;19.144;2022-12-15T12:46:13;60.20;;;26.92;;
45618;SDS011;31343;47.520;19.144;2022-12-15T12:51:22;60.55;;;26.20;;
45618;SDS011;31343;47.520;19.144;2022-12-15T12:53:57;58.17;;;23.98;;
45618;SDS011;31343;47.520;19.144;2022-12-15T13:01:57;60.15;;;27.02;;
45618;SDS011;31343;47.520;19.144;2022-12-15T13:07:35;47.50;;;24.15;;
45618;SDS011;31343;47.520;19.144;2022-12-15T13:10:16;61.85;;;27.52;;
45618;SDS011;31343;47.520;19.144;2022-12-15T13:17:48;53.20;;;26.30;;
45618;SDS011;31343;47.520;19.144;2022-12-15T13:20:19;61.25;;;28.52;;
45618;SDS011;31343;47.520;19.144;2022-12-15T13:22:54;57.35;;;26.88;;
45618;SDS011;31343;47.520;19.144;2022-12-15T13:25:25;58.88;;;26.55;;
45618;SDS011;31343;47.520;19.144;2022-12-15T13:27:57;52.63;;;25.88;;
45618;SDS011;31343;47.520;19.144;2022-12-15T13:30:25;56.00;;;25.48;;
45618;SDS011;31343;47.520;19.144;2022-12-15T13:33:12;60.15;;;25.45;;
45618;SDS011;31343;47.520;19.144;2022-12-15T13:35:40;61.65;;;26.20;;
45618;SDS011;31343;47.520;19.144;2022-12-15T13:38:15;59.72;;;26.95;;
45618;SDS011;31343;47.520;19.144;2022-12-15T13:40:51;65.45;;;29.00;;
45618;SDS011;31343;47.520;19.144;2022-12-15T13:45:55;67.38;;;29.50;;
45618;SDS011;31343;47.520;19.144;2022-12-15T13:48:34;66.90;;;28.40;;
45618;SDS011;31343;47.520;19.144;2022-12-15T13:51:11;65.28;;;31.63;;
45618;SDS011;31343;47.520;19.144;2022-12-15T13:54:11;62.35;;;28.50;;
45618;SDS011;31343;47.520;19.144;2022-12-15T13:59:21;56.03;;;27.08;;
45618;SDS011;31343;47.520;19.144;2022-12-15T14:02:01;58.80;;;26.92;;
45618;SDS011;31343;47.520;19.144;2022-12-15T14:04:27;62.22;;;27.67;;
45618;SDS011;31343;47.520;19.144;2022-12-15T14:06:54;59.28;;;27.73;;
45618;SDS011;31343;47.520;19.144;2022-12-15T14:12:16;60.45;;;23.75;;
45618;SDS011;31343;47.520;19.144;2022-12-15T14:14:44;64.68;;;26.17;;
45618;SDS011;31343;47.520;19.144;2022-12-15T14:17:14;66.00;;;25.52;;
45618;SDS011;31343;47.520;19.144;2022-12-15T14:19:42;51.22;;;25.98;;
45618;SDS011;31343;47.520;19.144;2022-12-15T14:22:43;54.50;;;25.33;;
45618;SDS011;31343;47.520;19.144;2022-12-15T14:25:12;52.23;;;25.13;;
45618;SDS011;31343;47.520;19.144;2022-12-15T14:27:41;57.63;;;26.55;;
45618;SDS011;31343;47.520;19.144;2022-12-15T14:30:29;57.30;;;25.75;;
45618;SDS011;31343;47.520;19.144;2022-12-15T14:36:10;57.63;;;25.20;;
45618;SDS011;31343;47.520;19.144;2022-12-15T14:38:23;52.75;;;25.98;;
45618;SDS011;31343;47.520;19.144;2022-12-15T14:40:50;54.22;;;25.80;;
45618;SDS011;31343;47.520;19.144;2022-12-15T14:43:19;53.17;;;26.08;;
45618;SDS011;31343;47.520;19.144;2022-12-15T14:46:07;53.50;;;25.20;;
45618;SDS011;31343;47.520;19.144;2022-12-15T14:48:41;58.00;;;25.95;;
45618;SDS011;31343;47.520;19.144;2022-12-15T14:51:19;54.65;;;26.85;;
45618;SDS011;31343;47.520;19.144;2022-12-15T14:53:47;54.88;;;25.00;;
45618;SDS011;31343;47.520;19.144;2022-12-15T14:59:16;51.47;;;26.10;;
45618;SDS011;31343;47.520;19.144;2022-12-15T15:02:45;54.58;;;26.48;;
45618;SDS011;31343;47.520;19.144;2022-12-15T15:04:55;67.53;;;28.70;;
45618;SDS011;31343;47.520;19.144;2022-12-15T15:07:30;87.40;;;33.53;;
45618;SDS011;31343;47.520;19.144;2022-12-15T15:09:56;71.22;;;29.75;;
45618;SDS011;31343;47.520;19.144;2022-12-15T15:12:24;60.97;;;30.35;;
45618;SDS011;31343;47.520;19.144;2022-12-15T15:15:05;58.38;;;27.23;;
45618;SDS011;31343;47.520;19.144;2022-12-15T15:17:34;58.63;;;27.80;;
45618;SDS011;31343;47.520;19.144;2022-12-15T15:20:03;58.53;;;28.25;;
45618;SDS011;31343;47.520;19.144;2022-12-15T15:22:40;61.65;;;28.42;;
45618;SDS011;31343;47.520;19.144;2022-12-15T15:30:54;56.75;;;26.88;;
45618;SDS011;31343;47.520;19.144;2022-12-15T15:33:23;60.60;;;26.75;;
45618;SDS011;31343;47.520;19.144;2022-12-15T15:35:54;57.50;;;27.35;;
45618;SDS011;31343;47.520;19.144;2022-12-15T15:38:22;51.40;;;25.10;;
45618;SDS011;31343;47.520;19.144;2022-12-15T15:40:56;57.60;;;28.02;;
45618;SDS011;31343;47.520;19.144;2022-12-15T15:43:26;52.85;;;26.98;;
45618;SDS011;31343;47.520;19.144;2022-12-15T15:45:54;52.72;;;27.70;;
45618;SDS011;31343;47.520;19.144;2022-12-15T15:48:30;54.97;;;25.37;;
45618;SDS011;31343;47.520;19.144;2022-12-15T15:50:58;58.33;;;25.58;;
45618;SDS011;31343;47.520;19.144;2022-12-15T15:53:25;55.28;;;27.38;;
45618;SDS011;31343;47.520;19.144;2022-12-15T15:55:54;59.30;;;27.40;;
45618;SDS011;31343;47.520;19.144;2022-12-15T15:58:21;51.05;;;25.15;;
45618;SDS011;31343;47.520;19.144;2022-12-15T16:00:46;53.65;;;25.83;;
45618;SDS011;31343;47.520;19.144;2022-12-15T16:03:12;50.10;;;25.42;;
45618;SDS011;31343;47.520;19.144;2022-12-15T16:05:38;57.30;;;25.42;;
45618;SDS011;31343;47.520;19.144;2022-12-15T16:08:05;45.75;;;23.60;;
45618;SDS011;31343;47.520;19.144;2022-12-15T16:10:33;48.13;;;24.48;;
45618;SDS011;31343;47.520;19.144;2022-12-15T16:12:59;49.40;;;23.85;;
45618;SDS011;31343;47.520;19.144;2022-12-15T16:15:29;44.92;;;23.40;;
45618;SDS011;31343;47.520;19.144;2022-12-15T16:17:58;53.45;;;23.65;;
45618;SDS011;31343;47.520;19.144;2022-12-15T16:20:25;59.38;;;24.58;;
45618;SDS011;31343;47.520;19.144;2022-12-15T16:22:56;44.83;;;23.42;;
45618;SDS011;31343;47.520;19.144;2022-12-15T16:25:46;46.63;;;22.50;;
45618;SDS011;31343;47.520;19.144;2022-12-15T16:28:20;46.58;;;22.38;;
45618;SDS011;31343;47.520;19.144;2022-12-15T16:30:47;51.30;;;25.85;;
45618;SDS011;31343;47.520;19.144;2022-12-15T16:33:13;46.92;;;22.35;;
45618;SDS011;31343;47.520;19.144;2022-12-15T16:35:40;48.67;;;23.10;;
45618;SDS011;31343;47.520;19.144;2022-12-15T16:38:27;48.90;;;23.00;;
45618;SDS011;31343;47.520;19.144;2022-12-15T16:40:54;47.65;;;23.92;;
45618;SDS011;31343;47.520;19.144;2022-12-15T16:43:21;47.15;;;22.58;;
45618;SDS011;31343;47.520;19.144;2022-12-15T16:45:49;48.58;;;21.92;;
45618;SDS011;31343;47.520;19.144;2022-12-15T16:48:16;51.75;;;22.65;;
45618;SDS011;31343;47.520;19.144;2022-12-15T16:50:43;51.97;;;21.75;;
45618;SDS011;31343;47.520;19.144;2022-12-15T16:53:14;49.78;;;21.40;;
45618;SDS011;31343;47.520;19.144;2022-12-15T16:55:52;46.00;;;21.15;;
45618;SDS011;31343;47.520;19.144;2022-12-15T16:58:20;41.13;;;21.35;;
45618;SDS011;31343;47.520;19.144;2022-12-15T17:00:46;45.05;;;20.70;;
45618;SDS011;31343;47.520;19.144;2022-12-15T17:03:13;36.65;;;20.35;;